Time,TemperatureF,DewpointF,PressureIn,WindDirection,WindDirectionDegrees,WindSpeedMPH,WindSpeedGustMPH,Humidity,HourlyPrecipIn,Conditions,Clouds,dailyrainin,SoftwareType,DateUTC
2014-02-27 00:11:00,30.0,21.0,29.88,NNW,329,0.0,2.0,69,0.00,,,0.07,,2014-02-27 08:11:00,
2014-02-27 00:21:00,30.0,21.0,29.87,West,281,0.0,2.0,69,0.00,,,0.07,,2014-02-27 08:21:00,
2014-02-27 00:42:00,30.0,21.0,29.87,WNW,294,0.0,2.0,68,0.00,,,0.07,,2014-02-27 08:42:00,
2014-02-27 00:52:00,30.0,20.0,29.86,WNW,302,1.0,2.0,66,0.00,,,0.07,,2014-02-27 08:52:00,
2014-02-27 01:11:00,30.0,21.0,29.86,WNW,300,0.0,2.0,69,0.00,,,0.07,,2014-02-27 09:11:00,
2014-02-27 01:22:00,30.0,21.0,29.85,NW,317,0.0,2.0,68,0.00,,,0.07,,2014-02-27 09:22:00,
2014-02-27 01:43:00,30.0,21.0,29.85,WNW,292,0.0,4.0,69,0.00,,,0.07,,2014-02-27 09:43:00,
2014-02-27 01:53:00,30.0,21.0,29.84,WNW,299,0.0,3.0,69,0.00,,,0.07,,2014-02-27 09:53:00,
2014-02-27 02:12:00,30.0,21.0,29.83,NW,313,0.0,3.0,68,0.00,,,0.07,,2014-02-27 10:12:00,
2014-02-27 02:23:00,31.0,22.0,29.83,NW,319,0.0,3.0,68,0.00,,,0.07,,2014-02-27 10:23:00,
2014-02-27 02:52:00,31.0,21.0,29.81,NNW,327,0.0,2.0,67,0.00,,,0.07,,2014-02-27 10:52:00,
2014-02-27 03:12:00,31.0,22.0,29.81,NW,319,1.0,3.0,68,0.00,,,0.07,,2014-02-27 11:12:00,
2014-02-27 03:22:00,31.0,22.0,29.80,WNW,292,0.0,4.0,69,0.00,,,0.07,,2014-02-27 11:22:00,
2014-02-27 03:52:00,29.0,21.0,29.79,WNW,296,0.0,1.0,72,0.00,,,0.07,,2014-02-27 11:52:00,
2014-02-27 04:12:00,30.0,22.0,29.79,NNW,330,0.0,3.0,71,0.00,,,0.07,,2014-02-27 12:12:00,
2014-02-27 04:22:00,30.0,22.0,29.78,WNW,298,0.0,2.0,72,0.00,,,0.07,,2014-02-27 12:22:00,
2014-02-27 04:42:00,30.0,22.0,29.78,WNW,299,0.0,1.0,73,0.00,,,0.07,,2014-02-27 12:42:00,
2014-02-27 04:52:00,30.0,22.0,29.77,NNW,328,0.0,3.0,71,0.00,,,0.07,,2014-02-27 12:52:00,
2014-02-27 05:12:00,30.0,22.0,29.76,NW,308,0.0,2.0,71,0.00,,,0.07,,2014-02-27 13:12:00,
2014-02-27 05:22:00,30.0,21.0,29.76,NNW,329,1.0,3.0,70,0.00,,,0.07,,2014-02-27 13:22:00,
2014-02-27 05:42:00,30.0,22.0,29.75,NW,319,0.0,2.0,71,0.00,,,0.07,,2014-02-27 13:42:00,
2014-02-27 05:52:00,30.0,22.0,29.75,NW,310,1.0,4.0,71,0.00,,,0.07,,2014-02-27 13:52:00,
2014-02-27 06:12:00,30.0,22.0,29.74,WNW,288,0.0,2.0,73,0.00,,,0.07,,2014-02-27 14:12:00,
2014-02-27 06:21:00,30.0,23.0,29.74,WNW,303,0.0,2.0,75,0.00,,,0.07,,2014-02-27 14:21:00,
2014-02-27 06:42:00,30.0,23.0,29.74,NW,310,0.0,2.0,75,0.00,,,0.07,,2014-02-27 14:42:00,
2014-02-27 06:52:00,30.0,23.0,29.73,NW,310,0.0,1.0,76,0.00,,,0.07,,2014-02-27 14:52:00,
2014-02-27 07:11:00,30.0,23.0,29.73,NW,310,0.0,1.0,76,0.00,,,0.07,,2014-02-27 15:11:00,
2014-02-27 07:22:00,30.0,22.0,29.73,NW,307,0.0,1.0,73,0.00,,,0.07,,2014-02-27 15:22:00,
2014-02-27 07:43:00,31.0,23.0,29.73,NW,326,0.0,2.0,72,0.00,,,0.07,,2014-02-27 15:43:00,
2014-02-27 07:53:00,31.0,23.0,29.73,NW,324,0.0,1.0,73,0.00,,,0.07,,2014-02-27 15:53:00,
2014-02-27 08:13:00,31.0,23.0,29.73,NNW,337,0.0,1.0,72,0.00,,,0.07,,2014-02-27 16:13:00,
2014-02-27 08:23:00,31.0,23.0,29.73,NNW,337,0.0,1.0,72,0.00,,,0.07,,2014-02-27 16:23:00,
2014-02-27 08:43:00,31.0,23.0,29.73,NW,309,1.0,2.0,72,0.00,,,0.07,,2014-02-27 16:43:00,
2014-02-27 08:52:00,32.0,24.0,29.73,North,2,0.0,3.0,73,0.00,,,0.07,,2014-02-27 16:52:00,
2014-02-27 09:12:00,32.0,24.0,29.72,NNW,337,0.0,2.0,73,0.00,,,0.07,,2014-02-27 17:12:00,
2014-02-27 09:22:00,32.0,24.0,29.72,NNW,329,0.0,2.0,73,0.00,,,0.07,,2014-02-27 17:22:00,
2014-02-27 09:52:00,32.0,24.0,29.72,NNW,348,0.0,2.0,73,0.00,,,0.07,,2014-02-27 17:52:00,
2014-02-27 10:12:00,33.0,25.0,29.72,NE,42,1.0,5.0,72,0.00,,,0.07,,2014-02-27 18:12:00,
2014-02-27 10:22:00,33.0,25.0,29.72,NNE,19,2.0,5.0,71,0.00,,,0.07,,2014-02-27 18:22:00,
2014-02-27 10:43:00,33.0,24.0,29.72,NNE,16,1.0,6.0,70,0.00,,,0.07,,2014-02-27 18:43:00,
2014-02-27 10:52:00,33.0,24.0,29.72,NNE,20,1.0,5.0,70,0.00,,,0.07,,2014-02-27 18:52:00,
2014-02-27 11:11:00,33.0,24.0,29.72,NE,38,3.0,5.0,69,0.00,,,0.07,,2014-02-27 19:11:00,
2014-02-27 11:21:00,34.0,25.0,29.71,NE,56,3.0,5.0,69,0.00,,,0.07,,2014-02-27 19:21:00,
2014-02-27 11:42:00,34.0,26.0,29.71,NE,53,2.0,3.0,71,0.00,,,0.07,,2014-02-27 19:42:00,
2014-02-27 11:52:00,34.0,25.0,29.71,NE,56,2.0,4.0,70,0.00,,,0.07,,2014-02-27 19:52:00,
2014-02-27 12:01:00,34.0,25.0,29.71,NE,56,2.0,4.0,70,0.00,,,0.07,,2014-02-27 20:01:00,
2014-02-27 12:11:00,34.0,25.0,29.71,NE,56,2.0,4.0,70,0.00,,,0.07,,2014-02-27 20:11:00,
2014-02-27 12:22:00,34.0,25.0,29.71,NE,53,0.0,2.0,68,0.00,,,0.07,,2014-02-27 20:22:00,
2014-02-27 12:42:00,34.0,25.0,29.71,NE,53,1.0,1.0,68,0.00,,,0.06,,2014-02-27 20:42:00,
2014-02-27 12:52:00,34.0,25.0,29.71,NE,53,0.0,1.0,69,0.00,,,0.06,,2014-02-27 20:52:00,
2014-02-27 13:12:00,34.0,25.0,29.70,NE,43,0.0,1.0,70,0.00,,,0.06,,2014-02-27 21:12:00,
2014-02-27 13:22:00,35.0,27.0,29.70,NE,56,2.0,3.0,73,0.00,,,0.06,,2014-02-27 21:22:00,
2014-02-27 13:43:00,37.0,28.0,29.70,NE,56,1.0,2.0,69,0.00,,,0.05,,2014-02-27 21:43:00,
2014-02-27 13:53:00,36.0,27.0,29.70,SW,215,3.0,4.0,70,0.01,,,0.06,,2014-02-27 21:53:00,
2014-02-27 14:13:00,36.0,28.0,29.69,SW,232,1.0,2.0,72,0.01,,,0.06,,2014-02-27 22:13:00,
2014-02-27 14:22:00,36.0,28.0,29.69,SSW,198,3.0,4.0,71,0.01,,,0.06,,2014-02-27 22:22:00,
2014-02-27 14:52:00,35.0,28.0,29.69,SSW,204,5.0,8.0,75,0.00,,,0.04,,2014-02-27 22:52:00,
2014-02-27 15:12:00,35.0,28.0,29.69,SSW,207,6.0,8.0,76,0.01,,,0.05,,2014-02-27 23:12:00,
2014-02-27 15:22:00,35.0,28.0,29.69,SW,215,4.0,7.0,76,0.01,,,0.05,,2014-02-27 23:22:00,
2014-02-27 15:42:00,34.0,28.0,29.69,SW,228,7.0,8.0,77,0.01,,,0.04,,2014-02-27 23:42:00,
2014-02-27 15:53:00,34.0,28.0,29.69,SSW,213,7.0,11.0,78,0.01,,,0.04,,2014-02-27 23:53:00,
2014-02-27 16:12:00,34.0,28.0,29.70,SW,225,4.0,7.0,80,0.00,,,0.04,,2014-02-28 00:12:00,
2014-02-27 16:21:00,34.0,28.0,29.70,SW,225,3.0,7.0,80,0.00,,,0.04,,2014-02-28 00:21:00,
2014-02-27 16:42:00,34.0,29.0,29.70,SW,218,3.0,5.0,82,0.00,,,0.03,,2014-02-28 00:42:00,
2014-02-27 16:52:00,34.0,29.0,29.70,SSW,213,3.0,5.0,83,0.00,,,0.03,,2014-02-28 00:52:00,
2014-02-27 17:11:00,34.0,30.0,29.71,SW,222,4.0,5.0,84,0.00,,,0.03,,2014-02-28 01:11:00,
2014-02-27 17:22:00,33.0,29.0,29.71,SSW,212,6.0,8.0,86,0.00,,,0.03,,2014-02-28 01:22:00,
2014-02-27 17:42:00,33.0,30.0,29.70,SSW,203,6.0,8.0,88,0.00,,,0.02,,2014-02-28 01:42:00,
2014-02-27 17:52:00,33.0,30.0,29.71,SSW,203,5.0,8.0,88,0.00,,,0.02,,2014-02-28 01:52:00,
2014-02-27 18:11:00,33.0,30.0,29.71,SW,221,6.0,8.0,88,0.00,,,0.02,,2014-02-28 02:11:00,
2014-02-27 18:21:00,33.0,30.0,29.71,SW,218,5.0,9.0,89,0.00,,,0.02,,2014-02-28 02:21:00,
2014-02-27 18:32:00,33.0,30.0,29.71,SW,218,5.0,9.0,89,0.00,,,0.02,,2014-02-28 02:32:00,
2014-02-27 18:52:00,32.0,29.0,29.72,WSW,238,4.0,6.0,90,0.00,,,0.02,,2014-02-28 02:52:00,
2014-02-27 19:11:00,32.0,29.0,29.72,SSW,213,5.0,6.0,90,0.00,,,0.02,,2014-02-28 03:11:00,
2014-02-27 19:22:00,32.0,29.0,29.72,SSW,207,3.0,5.0,90,0.00,,,0.02,,2014-02-28 03:22:00,
2014-02-27 19:44:00,32.0,30.0,29.72,SW,227,2.0,4.0,91,0.00,,,0.02,,2014-02-28 03:44:00,
2014-02-27 19:53:00,32.0,30.0,29.72,SSW,210,4.0,6.0,91,0.00,,,0.02,,2014-02-28 03:53:00,
2014-02-27 20:13:00,32.0,30.0,29.72,SSW,211,4.0,6.0,91,0.00,,,0.02,,2014-02-28 04:13:00,
2014-02-27 20:23:00,32.0,30.0,29.73,SW,218,2.0,4.0,92,0.00,,,0.02,,2014-02-28 04:23:00,
2014-02-27 20:43:00,32.0,30.0,29.74,SW,222,3.0,4.0,92,0.00,,,0.02,,2014-02-28 04:43:00,
2014-02-27 20:53:00,31.0,29.0,29.74,SSW,211,4.0,5.0,92,0.00,,,0.02,,2014-02-28 04:53:00,
2014-02-27 21:22:00,31.0,29.0,29.74,SSW,203,4.0,5.0,93,0.00,,,0.02,,2014-02-28 05:22:00,
2014-02-27 21:43:00,31.0,29.0,29.74,SSW,207,2.0,4.0,93,0.00,,,0.02,,2014-02-28 05:43:00,
2014-02-27 21:53:00,31.0,29.0,29.74,SSW,201,2.0,4.0,93,0.00,,,0.02,,2014-02-28 05:53:00,
2014-02-27 22:12:00,31.0,29.0,29.74,SW,222,2.0,2.0,93,0.00,,,0.02,,2014-02-28 06:12:00,
2014-02-27 22:21:00,31.0,29.0,29.74,SW,227,1.0,5.0,94,0.00,,,0.02,,2014-02-28 06:21:00,
2014-02-27 22:42:00,31.0,29.0,29.74,SSW,211,2.0,4.0,94,0.00,,,0.02,,2014-02-28 06:42:00,
2014-02-27 22:52:00,31.0,29.0,29.74,SW,215,2.0,3.0,94,0.00,,,0.02,,2014-02-28 06:52:00,
2014-02-27 23:11:00,31.0,29.0,29.75,SSW,211,2.0,3.0,94,0.00,,,0.02,,2014-02-28 07:11:00,
2014-02-27 23:21:00,31.0,29.0,29.75,SSW,204,3.0,4.0,94,0.00,,,0.02,,2014-02-28 07:21:00,
2014-02-27 23:42:00,31.0,29.0,29.75,SW,215,2.0,4.0,94,0.00,,,0.02,,2014-02-28 07:42:00,
2014-02-27 23:52:00,31.0,29.0,29.75,SW,221,2.0,3.0,94,0.00,,,0.02,,2014-02-28 07:52:00,